sensor_id;sensor_type;location;lat;lon;timestamp;temperature;humidity
78520;SHT31;67818;51.986;5.648;2023-08-24T00:01:07;19.1;73.0
78520;SHT31;67818;51.986;5.648;2023-08-24T00:03:38;19.0;72.8
78520;SHT31;67818;51.986;5.648;2023-08-24T00:06:07;19.0;72.9
78520;SHT31;67818;51.986;5.648;2023-08-24T00:08:37;19.0;72.7
78520;SHT31;67818;51.986;5.648;2023-08-24T00:11:05;19.0;72.9
78520;SHT31;67818;51.986;5.648;2023-08-24T00:13:34;19.0;72.8
78520;SHT31;67818;51.986;5.648;2023-08-24T00:16:03;19.0;72.7
78520;SHT31;67818;51.986;5.648;2023-08-24T00:18:33;19.0;73.2
78520;SHT31;67818;51.986;5.648;2023-08-24T00:21:01;19.0;73.1
78520;SHT31;67818;51.986;5.648;2023-08-24T00:23:30;19.0;73.3
78520;SHT31;67818;51.986;5.648;2023-08-24T00:25:58;18.9;73.2
78520;SHT31;67818;51.986;5.648;2023-08-24T00:28:27;18.9;73.1
78520;SHT31;67818;51.986;5.648;2023-08-24T00:30:56;18.9;73.5
78520;SHT31;67818;51.986;5.648;2023-08-24T00:33:24;18.9;73.3
78520;SHT31;67818;51.986;5.648;2023-08-24T00:35:52;18.9;72.8
78520;SHT31;67818;51.986;5.648;2023-08-24T00:38:21;18.9;73.6
78520;SHT31;67818;51.986;5.648;2023-08-24T00:40:52;18.9;73.4
78520;SHT31;67818;51.986;5.648;2023-08-24T00:43:21;18.9;73.0
78520;SHT31;67818;51.986;5.648;2023-08-24T00:45:52;18.9;73.3
78520;SHT31;67818;51.986;5.648;2023-08-24T00:48:22;18.9;72.9
78520;SHT31;67818;51.986;5.648;2023-08-24T00:50:54;18.9;73.0
78520;SHT31;67818;51.986;5.648;2023-08-24T00:53:25;18.9;73.5
78520;SHT31;67818;51.986;5.648;2023-08-24T00:55:57;18.9;73.3
78520;SHT31;67818;51.986;5.648;2023-08-24T00:58:27;18.9;73.1
78520;SHT31;67818;51.986;5.648;2023-08-24T01:00:57;18.9;73.3
78520;SHT31;67818;51.986;5.648;2023-08-24T01:03:27;18.9;73.4
78520;SHT31;67818;51.986;5.648;2023-08-24T01:05:56;18.9;73.6
78520;SHT31;67818;51.986;5.648;2023-08-24T01:08:25;18.9;73.6
78520;SHT31;67818;51.986;5.648;2023-08-24T01:10:59;18.9;73.8
78520;SHT31;67818;51.986;5.648;2023-08-24T01:13:36;18.9;74.0
78520;SHT31;67818;51.986;5.648;2023-08-24T01:16:10;19.0;73.8
78520;SHT31;67818;51.986;5.648;2023-08-24T01:18:42;19.0;73.9
78520;SHT31;67818;51.986;5.648;2023-08-24T01:21:12;19.0;73.8
78520;SHT31;67818;51.986;5.648;2023-08-24T01:23:49;19.0;73.8
78520;SHT31;67818;51.986;5.648;2023-08-24T01:26:21;19.1;73.8
78520;SHT31;67818;51.986;5.648;2023-08-24T01:28:52;19.1;73.7
78520;SHT31;67818;51.986;5.648;2023-08-24T01:31:22;19.1;73.7
78520;SHT31;67818;51.986;5.648;2023-08-24T01:33:50;19.2;73.7
78520;SHT31;67818;51.986;5.648;2023-08-24T01:36:21;19.2;73.6
78520;SHT31;67818;51.986;5.648;2023-08-24T01:38:57;19.3;73.5
78520;SHT31;67818;51.986;5.648;2023-08-24T01:41:36;19.3;73.5
78520;SHT31;67818;51.986;5.648;2023-08-24T01:44:13;19.4;73.3
78520;SHT31;67818;51.986;5.648;2023-08-24T01:46:44;19.4;73.3
78520;SHT31;67818;51.986;5.648;2023-08-24T01:49:15;19.5;73.0
78520;SHT31;67818;51.986;5.648;2023-08-24T01:51:46;19.5;73.2
78520;SHT31;67818;51.986;5.648;2023-08-24T01:54:17;19.6;72.9
78520;SHT31;67818;51.986;5.648;2023-08-24T01:56:45;19.6;72.9
78520;SHT31;67818;51.986;5.648;2023-08-24T01:59:14;19.6;72.9
78520;SHT31;67818;51.986;5.648;2023-08-24T02:01:42;19.7;72.6
78520;SHT31;67818;51.986;5.648;2023-08-24T02:04:11;19.7;72.6
78520;SHT31;67818;51.986;5.648;2023-08-24T02:06:40;19.7;72.3
78520;SHT31;67818;51.986;5.648;2023-08-24T02:09:08;19.8;72.2
78520;SHT31;67818;51.986;5.648;2023-08-24T02:11:37;19.8;72.3
78520;SHT31;67818;51.986;5.648;2023-08-24T02:14:06;19.8;72.2
78520;SHT31;67818;51.986;5.648;2023-08-24T02:16:35;19.8;72.5
78520;SHT31;67818;51.986;5.648;2023-08-24T02:19:04;19.8;72.8
78520;SHT31;67818;51.986;5.648;2023-08-24T02:21:34;19.8;72.8
78520;SHT31;67818;51.986;5.648;2023-08-24T02:24:04;19.9;72.8
78520;SHT31;67818;51.986;5.648;2023-08-24T02:26:32;19.9;73.1
78520;SHT31;67818;51.986;5.648;2023-08-24T02:29:01;19.9;73.2
78520;SHT31;67818;51.986;5.648;2023-08-24T02:31:30;19.9;73.3
78520;SHT31;67818;51.986;5.648;2023-08-24T02:33:59;19.9;73.6
78520;SHT31;67818;51.986;5.648;2023-08-24T02:36:28;20.0;74.0
78520;SHT31;67818;51.986;5.648;2023-08-24T02:38:59;20.0;74.3
78520;SHT31;67818;51.986;5.648;2023-08-24T02:41:29;20.0;74.6
78520;SHT31;67818;51.986;5.648;2023-08-24T02:43:57;19.9;75.1
78520;SHT31;67818;51.986;5.648;2023-08-24T02:46:26;19.9;75.4
78520;SHT31;67818;51.986;5.648;2023-08-24T02:48:54;19.9;75.8
78520;SHT31;67818;51.986;5.648;2023-08-24T02:51:25;19.9;76.3
78520;SHT31;67818;51.986;5.648;2023-08-24T02:53:54;19.9;76.7
78520;SHT31;67818;51.986;5.648;2023-08-24T02:56:22;19.9;76.4
78520;SHT31;67818;51.986;5.648;2023-08-24T02:58:51;19.8;76.9
78520;SHT31;67818;51.986;5.648;2023-08-24T03:01:21;19.8;77.1
78520;SHT31;67818;51.986;5.648;2023-08-24T03:03:52;19.8;77.3
78520;SHT31;67818;51.986;5.648;2023-08-24T03:06:21;19.7;77.6
78520;SHT31;67818;51.986;5.648;2023-08-24T03:08:50;19.7;77.7
78520;SHT31;67818;51.986;5.648;2023-08-24T03:11:19;19.6;77.9
78520;SHT31;67818;51.986;5.648;2023-08-24T03:13:48;19.6;78.2
78520;SHT31;67818;51.986;5.648;2023-08-24T03:16:18;19.5;78.1
78520;SHT31;67818;51.986;5.648;2023-08-24T03:18:48;19.5;78.3
78520;SHT31;67818;51.986;5.648;2023-08-24T03:21:16;19.4;78.6
78520;SHT31;67818;51.986;5.648;2023-08-24T03:23:45;19.4;78.9
78520;SHT31;67818;51.986;5.648;2023-08-24T03:26:14;19.3;79.0
78520;SHT31;67818;51.986;5.648;2023-08-24T03:28:46;19.3;79.2
78520;SHT31;67818;51.986;5.648;2023-08-24T03:31:16;19.2;79.3
78520;SHT31;67818;51.986;5.648;2023-08-24T03:33:47;19.2;79.4
78520;SHT31;67818;51.986;5.648;2023-08-24T03:36:15;19.2;79.7
78520;SHT31;67818;51.986;5.648;2023-08-24T03:38:43;19.1;79.9
78520;SHT31;67818;51.986;5.648;2023-08-24T03:41:12;19.1;80.1
78520;SHT31;67818;51.986;5.648;2023-08-24T03:43:41;19.1;80.3
78520;SHT31;67818;51.986;5.648;2023-08-24T03:46:10;19.1;80.4
78520;SHT31;67818;51.986;5.648;2023-08-24T03:48:40;19.0;80.5
78520;SHT31;67818;51.986;5.648;2023-08-24T03:51:08;19.0;80.3
78520;SHT31;67818;51.986;5.648;2023-08-24T03:53:37;19.0;80.2
78520;SHT31;67818;51.986;5.648;2023-08-24T03:56:06;19.0;80.2
78520;SHT31;67818;51.986;5.648;2023-08-24T03:58:34;19.0;80.2
78520;SHT31;67818;51.986;5.648;2023-08-24T04:01:03;19.0;79.9
78520;SHT31;67818;51.986;5.648;2023-08-24T04:03:33;19.1;80.1
78520;SHT31;67818;51.986;5.648;2023-08-24T04:06:05;19.1;79.8
78520;SHT31;67818;51.986;5.648;2023-08-24T04:08:34;19.1;80.0
78520;SHT31;67818;51.986;5.648;2023-08-24T04:11:03;19.1;79.9
78520;SHT31;67818;51.986;5.648;2023-08-24T04:13:31;19.1;79.8
78520;SHT31;67818;51.986;5.648;2023-08-24T04:16:00;19.1;80.1
78520;SHT31;67818;51.986;5.648;2023-08-24T04:18:30;19.2;80.0
78520;SHT31;67818;51.986;5.648;2023-08-24T04:20:59;19.3;79.7
78520;SHT31;67818;51.986;5.648;2023-08-24T04:23:29;19.4;79.3
78520;SHT31;67818;51.986;5.648;2023-08-24T04:25:58;19.4;78.6
78520;SHT31;67818;51.986;5.648;2023-08-24T04:28:26;19.4;78.3
78520;SHT31;67818;51.986;5.648;2023-08-24T04:30:56;19.4;78.1
78520;SHT31;67818;51.986;5.648;2023-08-24T04:33:25;19.4;78.1
78520;SHT31;67818;51.986;5.648;2023-08-24T04:35:54;19.4;77.9
78520;SHT31;67818;51.986;5.648;2023-08-24T04:38:22;19.4;77.8
78520;SHT31;67818;51.986;5.648;2023-08-24T04:40:55;19.4;77.9
78520;SHT31;67818;51.986;5.648;2023-08-24T04:43:24;19.4;77.4
78520;SHT31;67818;51.986;5.648;2023-08-24T04:45:54;19.4;77.3
78520;SHT31;67818;51.986;5.648;2023-08-24T04:48:24;19.4;77.7
78520;SHT31;67818;51.986;5.648;2023-08-24T04:50:56;19.3;77.3
78520;SHT31;67818;51.986;5.648;2023-08-24T04:53:28;19.3;77.1
78520;SHT31;67818;51.986;5.648;2023-08-24T04:55:56;19.3;77.5
78520;SHT31;67818;51.986;5.648;2023-08-24T04:58:25;19.3;77.1
78520;SHT31;67818;51.986;5.648;2023-08-24T05:00:56;19.2;77.4
78520;SHT31;67818;51.986;5.648;2023-08-24T05:03:25;19.2;78.4
78520;SHT31;67818;51.986;5.648;2023-08-24T05:05:54;19.1;77.9
78520;SHT31;67818;51.986;5.648;2023-08-24T05:08:23;19.1;77.8
78520;SHT31;67818;51.986;5.648;2023-08-24T05:10:52;19.1;78.3
78520;SHT31;67818;51.986;5.648;2023-08-24T05:13:20;19.1;78.1
78520;SHT31;67818;51.986;5.648;2023-08-24T05:15:49;19.0;78.1
78520;SHT31;67818;51.986;5.648;2023-08-24T05:18:19;19.0;78.2
78520;SHT31;67818;51.986;5.648;2023-08-24T05:20:48;19.0;78.4
78520;SHT31;67818;51.986;5.648;2023-08-24T05:23:17;19.0;78.6
78520;SHT31;67818;51.986;5.648;2023-08-24T05:25:46;19.0;78.8
78520;SHT31;67818;51.986;5.648;2023-08-24T05:28:15;19.0;78.8
78520;SHT31;67818;51.986;5.648;2023-08-24T05:30:48;19.0;79.1
78520;SHT31;67818;51.986;5.648;2023-08-24T05:33:16;19.0;79.2
78520;SHT31;67818;51.986;5.648;2023-08-24T05:35:45;19.0;79.2
78520;SHT31;67818;51.986;5.648;2023-08-24T05:38:14;19.1;79.8
78520;SHT31;67818;51.986;5.648;2023-08-24T05:40:47;19.1;79.6
78520;SHT31;67818;51.986;5.648;2023-08-24T05:43:19;19.2;79.5
78520;SHT31;67818;51.986;5.648;2023-08-24T05:45:49;19.3;79.1
78520;SHT31;67818;51.986;5.648;2023-08-24T05:48:18;19.4;79.1
78520;SHT31;67818;51.986;5.648;2023-08-24T05:50:47;19.5;79.2
78520;SHT31;67818;51.986;5.648;2023-08-24T05:53:15;19.6;78.5
78520;SHT31;67818;51.986;5.648;2023-08-24T05:55:44;19.7;78.2
78520;SHT31;67818;51.986;5.648;2023-08-24T05:58:12;19.8;78.2
78520;SHT31;67818;51.986;5.648;2023-08-24T06:00:41;19.9;78.3
78520;SHT31;67818;51.986;5.648;2023-08-24T06:03:10;20.0;78.2
78520;SHT31;67818;51.986;5.648;2023-08-24T06:05:39;20.0;77.9
78520;SHT31;67818;51.986;5.648;2023-08-24T06:08:08;20.1;77.2
78520;SHT31;67818;51.986;5.648;2023-08-24T06:10:36;20.2;77.1
78520;SHT31;67818;51.986;5.648;2023-08-24T06:13:05;20.4;76.9
78520;SHT31;67818;51.986;5.648;2023-08-24T06:15:33;20.5;76.0
78520;SHT31;67818;51.986;5.648;2023-08-24T06:18:02;20.6;74.8
78520;SHT31;67818;51.986;5.648;2023-08-24T06:20:31;20.8;74.9
78520;SHT31;67818;51.986;5.648;2023-08-24T06:22:59;20.9;73.4
78520;SHT31;67818;51.986;5.648;2023-08-24T06:25:28;21.0;73.7
78520;SHT31;67818;51.986;5.648;2023-08-24T06:27:58;21.1;73.6
78520;SHT31;67818;51.986;5.648;2023-08-24T06:30:30;21.2;73.3
78520;SHT31;67818;51.986;5.648;2023-08-24T06:33:04;21.2;73.6
78520;SHT31;67818;51.986;5.648;2023-08-24T06:35:33;21.3;73.9
78520;SHT31;67818;51.986;5.648;2023-08-24T06:38:03;21.3;72.7
78520;SHT31;67818;51.986;5.648;2023-08-24T06:40:32;21.4;74.1
78520;SHT31;67818;51.986;5.648;2023-08-24T06:43:00;21.4;73.4
78520;SHT31;67818;51.986;5.648;2023-08-24T06:45:29;21.5;74.1
78520;SHT31;67818;51.986;5.648;2023-08-24T06:47:58;21.5;72.3
78520;SHT31;67818;51.986;5.648;2023-08-24T06:50:26;21.6;73.3
78520;SHT31;67818;51.986;5.648;2023-08-24T06:52:55;21.6;71.8
78520;SHT31;67818;51.986;5.648;2023-08-24T06:55:25;21.7;72.9
78520;SHT31;67818;51.986;5.648;2023-08-24T06:57:54;21.7;71.7
78520;SHT31;67818;51.986;5.648;2023-08-24T07:00:23;21.8;72.9
78520;SHT31;67818;51.986;5.648;2023-08-24T07:02:52;21.8;72.1
78520;SHT31;67818;51.986;5.648;2023-08-24T07:05:21;21.9;71.9
78520;SHT31;67818;51.986;5.648;2023-08-24T07:07:51;22.0;72.0
78520;SHT31;67818;51.986;5.648;2023-08-24T07:10:22;22.0;70.4
78520;SHT31;67818;51.986;5.648;2023-08-24T07:12:51;22.1;71.4
78520;SHT31;67818;51.986;5.648;2023-08-24T07:15:22;22.1;72.6
78520;SHT31;67818;51.986;5.648;2023-08-24T07:17:51;22.2;70.6
78520;SHT31;67818;51.986;5.648;2023-08-24T07:20:20;22.2;70.4
78520;SHT31;67818;51.986;5.648;2023-08-24T07:22:48;22.3;72.1
78520;SHT31;67818;51.986;5.648;2023-08-24T07:25:19;22.3;72.6
78520;SHT31;67818;51.986;5.648;2023-08-24T07:27:48;22.4;71.9
78520;SHT31;67818;51.986;5.648;2023-08-24T07:30:17;22.5;72.7
78520;SHT31;67818;51.986;5.648;2023-08-24T07:32:46;22.6;70.8
78520;SHT31;67818;51.986;5.648;2023-08-24T07:35:15;22.7;70.0
78520;SHT31;67818;51.986;5.648;2023-08-24T07:37:44;22.8;69.9
78520;SHT31;67818;51.986;5.648;2023-08-24T07:40:14;22.8;68.0
78520;SHT31;67818;51.986;5.648;2023-08-24T07:42:46;22.9;66.5
78520;SHT31;67818;51.986;5.648;2023-08-24T07:45:17;23.0;68.6
78520;SHT31;67818;51.986;5.648;2023-08-24T07:47:48;23.1;66.2
78520;SHT31;67818;51.986;5.648;2023-08-24T07:50:17;23.2;67.4
78520;SHT31;67818;51.986;5.648;2023-08-24T07:52:46;23.3;66.2
78520;SHT31;67818;51.986;5.648;2023-08-24T07:55:17;23.4;64.9
78520;SHT31;67818;51.986;5.648;2023-08-24T07:57:46;23.5;64.4
78520;SHT31;67818;51.986;5.648;2023-08-24T08:00:16;23.5;65.6
78520;SHT31;67818;51.986;5.648;2023-08-24T08:02:45;23.6;64.0
78520;SHT31;67818;51.986;5.648;2023-08-24T08:05:15;23.7;63.9
78520;SHT31;67818;51.986;5.648;2023-08-24T08:07:44;23.8;63.4
78520;SHT31;67818;51.986;5.648;2023-08-24T08:10:13;23.9;65.4
78520;SHT31;67818;51.986;5.648;2023-08-24T08:12:43;24.0;63.5
78520;SHT31;67818;51.986;5.648;2023-08-24T08:15:12;24.1;61.3
78520;SHT31;67818;51.986;5.648;2023-08-24T08:17:41;24.2;62.6
78520;SHT31;67818;51.986;5.648;2023-08-24T08:20:13;24.3;63.3
78520;SHT31;67818;51.986;5.648;2023-08-24T08:22:43;24.5;62.5
78520;SHT31;67818;51.986;5.648;2023-08-24T08:25:11;24.6;58.4
78520;SHT31;67818;51.986;5.648;2023-08-24T08:27:40;24.8;60.0
78520;SHT31;67818;51.986;5.648;2023-08-24T08:30:11;24.9;59.8
78520;SHT31;67818;51.986;5.648;2023-08-24T08:32:44;25.1;58.9
78520;SHT31;67818;51.986;5.648;2023-08-24T08:35:12;25.2;57.9
78520;SHT31;67818;51.986;5.648;2023-08-24T08:37:41;25.4;58.1
78520;SHT31;67818;51.986;5.648;2023-08-24T08:40:17;25.5;57.6
78520;SHT31;67818;51.986;5.648;2023-08-24T08:42:46;25.6;58.2
78520;SHT31;67818;51.986;5.648;2023-08-24T08:45:16;25.7;58.0
78520;SHT31;67818;51.986;5.648;2023-08-24T08:47:49;25.7;58.0
78520;SHT31;67818;51.986;5.648;2023-08-24T08:50:20;25.8;58.5
78520;SHT31;67818;51.986;5.648;2023-08-24T08:52:49;25.9;59.0
78520;SHT31;67818;51.986;5.648;2023-08-24T08:55:19;25.9;60.1
78520;SHT31;67818;51.986;5.648;2023-08-24T08:57:49;25.9;59.1
78520;SHT31;67818;51.986;5.648;2023-08-24T09:00:23;26.0;57.9
78520;SHT31;67818;51.986;5.648;2023-08-24T09:02:53;26.0;58.2
78520;SHT31;67818;51.986;5.648;2023-08-24T09:05:25;25.9;57.9
78520;SHT31;67818;51.986;5.648;2023-08-24T09:07:55;25.9;58.6
78520;SHT31;67818;51.986;5.648;2023-08-24T09:10:26;25.9;59.5
78520;SHT31;67818;51.986;5.648;2023-08-24T09:12:54;25.9;59.0
78520;SHT31;67818;51.986;5.648;2023-08-24T09:15:27;25.8;58.8
78520;SHT31;67818;51.986;5.648;2023-08-24T09:17:56;25.8;59.8
78520;SHT31;67818;51.986;5.648;2023-08-24T09:20:28;25.8;61.0
78520;SHT31;67818;51.986;5.648;2023-08-24T09:22:57;25.8;60.3
78520;SHT31;67818;51.986;5.648;2023-08-24T09:25:26;25.9;59.0
78520;SHT31;67818;51.986;5.648;2023-08-24T09:27:59;25.9;58.9
78520;SHT31;67818;51.986;5.648;2023-08-24T09:30:35;25.9;59.6
78520;SHT31;67818;51.986;5.648;2023-08-24T09:33:12;25.9;60.1
78520;SHT31;67818;51.986;5.648;2023-08-24T09:35:42;25.9;60.2
78520;SHT31;67818;51.986;5.648;2023-08-24T09:38:20;25.9;60.2
78520;SHT31;67818;51.986;5.648;2023-08-24T09:40:54;26.0;59.1
78520;SHT31;67818;51.986;5.648;2023-08-24T09:43:23;26.0;60.6
78520;SHT31;67818;51.986;5.648;2023-08-24T09:45:54;26.1;61.3
78520;SHT31;67818;51.986;5.648;2023-08-24T09:48:24;26.2;59.7
78520;SHT31;67818;51.986;5.648;2023-08-24T09:50:53;26.2;60.1
78520;SHT31;67818;51.986;5.648;2023-08-24T09:53:23;26.3;60.2
78520;SHT31;67818;51.986;5.648;2023-08-24T09:55:59;26.4;59.8
78520;SHT31;67818;51.986;5.648;2023-08-24T09:58:33;26.4;59.5
78520;SHT31;67818;51.986;5.648;2023-08-24T10:01:03;26.5;58.9
78520;SHT31;67818;51.986;5.648;2023-08-24T10:03:34;26.5;58.7
78520;SHT31;67818;51.986;5.648;2023-08-24T10:06:05;26.6;58.8
78520;SHT31;67818;51.986;5.648;2023-08-24T10:08:41;26.6;59.6
78520;SHT31;67818;51.986;5.648;2023-08-24T10:11:17;26.7;59.2
78520;SHT31;67818;51.986;5.648;2023-08-24T10:13:56;26.7;59.1
78520;SHT31;67818;51.986;5.648;2023-08-24T10:16:27;26.7;58.2
78520;SHT31;67818;51.986;5.648;2023-08-24T10:18:57;26.7;58.0
78520;SHT31;67818;51.986;5.648;2023-08-24T10:21:27;26.7;58.3
78520;SHT31;67818;51.986;5.648;2023-08-24T10:23:57;26.6;58.2
78520;SHT31;67818;51.986;5.648;2023-08-24T10:26:28;26.6;58.4
78520;SHT31;67818;51.986;5.648;2023-08-24T10:28:57;26.5;59.6
78520;SHT31;67818;51.986;5.648;2023-08-24T10:31:26;26.5;59.3
78520;SHT31;67818;51.986;5.648;2023-08-24T10:34:00;26.4;60.0
78520;SHT31;67818;51.986;5.648;2023-08-24T10:36:30;26.3;61.2
78520;SHT31;67818;51.986;5.648;2023-08-24T10:39:03;26.3;60.8
78520;SHT31;67818;51.986;5.648;2023-08-24T10:41:49;26.2;59.6
78520;SHT31;67818;51.986;5.648;2023-08-24T10:44:25;26.2;59.5
78520;SHT31;67818;51.986;5.648;2023-08-24T10:47:10;26.1;60.3
78520;SHT31;67818;51.986;5.648;2023-08-24T10:49:44;26.0;61.5
78520;SHT31;67818;51.986;5.648;2023-08-24T10:52:21;26.0;63.4
78520;SHT31;67818;51.986;5.648;2023-08-24T10:54:52;25.9;62.1
78520;SHT31;67818;51.986;5.648;2023-08-24T10:57:22;25.9;63.1
78520;SHT31;67818;51.986;5.648;2023-08-24T11:00:03;25.9;61.5
78520;SHT31;67818;51.986;5.648;2023-08-24T11:02:46;25.8;61.7
78520;SHT31;67818;51.986;5.648;2023-08-24T11:05:22;25.8;61.4
78520;SHT31;67818;51.986;5.648;2023-08-24T11:07:56;25.8;62.1
78520;SHT31;67818;51.986;5.648;2023-08-24T11:10:33;25.8;62.3
78520;SHT31;67818;51.986;5.648;2023-08-24T11:13:13;25.7;63.6
78520;SHT31;67818;51.986;5.648;2023-08-24T11:15:44;25.7;62.9
78520;SHT31;67818;51.986;5.648;2023-08-24T11:18:14;25.7;63.2
78520;SHT31;67818;51.986;5.648;2023-08-24T11:20:45;25.8;62.6
78520;SHT31;67818;51.986;5.648;2023-08-24T11:23:16;25.8;62.5
78520;SHT31;67818;51.986;5.648;2023-08-24T11:25:46;25.8;62.5
78520;SHT31;67818;51.986;5.648;2023-08-24T11:28:20;25.8;62.8
78520;SHT31;67818;51.986;5.648;2023-08-24T11:30:49;25.8;63.0
78520;SHT31;67818;51.986;5.648;2023-08-24T11:33:29;25.8;63.9
78520;SHT31;67818;51.986;5.648;2023-08-24T11:35:59;25.8;64.7
78520;SHT31;67818;51.986;5.648;2023-08-24T11:38:37;25.9;64.0
78520;SHT31;67818;51.986;5.648;2023-08-24T11:41:12;25.9;63.0
78520;SHT31;67818;51.986;5.648;2023-08-24T11:43:41;25.9;63.5
78520;SHT31;67818;51.986;5.648;2023-08-24T11:46:11;25.9;64.6
78520;SHT31;67818;51.986;5.648;2023-08-24T11:48:41;26.0;63.0
78520;SHT31;67818;51.986;5.648;2023-08-24T11:51:11;26.0;63.2
78520;SHT31;67818;51.986;5.648;2023-08-24T11:53:42;26.0;61.9
78520;SHT31;67818;51.986;5.648;2023-08-24T11:56:13;26.0;62.6
78520;SHT31;67818;51.986;5.648;2023-08-24T11:58:47;26.0;63.6
78520;SHT31;67818;51.986;5.648;2023-08-24T12:01:16;26.1;62.9
78520;SHT31;67818;51.986;5.648;2023-08-24T12:03:46;26.1;62.7
78520;SHT31;67818;51.986;5.648;2023-08-24T12:06:16;26.1;62.0
78520;SHT31;67818;51.986;5.648;2023-08-24T12:08:48;26.2;62.2
78520;SHT31;67818;51.986;5.648;2023-08-24T12:11:19;26.2;62.2
78520;SHT31;67818;51.986;5.648;2023-08-24T12:13:54;26.2;62.3
78520;SHT31;67818;51.986;5.648;2023-08-24T12:16:23;26.2;62.0
78520;SHT31;67818;51.986;5.648;2023-08-24T12:18:54;26.3;62.6
78520;SHT31;67818;51.986;5.648;2023-08-24T12:21:26;26.3;61.7
78520;SHT31;67818;51.986;5.648;2023-08-24T12:24:01;26.4;62.3
78520;SHT31;67818;51.986;5.648;2023-08-24T12:26:33;26.4;63.8
78520;SHT31;67818;51.986;5.648;2023-08-24T12:29:04;26.5;63.3
78520;SHT31;67818;51.986;5.648;2023-08-24T12:31:34;26.6;61.5
78520;SHT31;67818;51.986;5.648;2023-08-24T12:34:04;26.7;63.5
78520;SHT31;67818;51.986;5.648;2023-08-24T12:36:36;26.8;61.6
78520;SHT31;67818;51.986;5.648;2023-08-24T12:39:07;26.8;62.5
78520;SHT31;67818;51.986;5.648;2023-08-24T12:41:37;26.9;63.7
78520;SHT31;67818;51.986;5.648;2023-08-24T12:44:06;26.9;63.6
78520;SHT31;67818;51.986;5.648;2023-08-24T12:46:35;27.0;61.3
78520;SHT31;67818;51.986;5.648;2023-08-24T12:49:04;27.0;62.5
78520;SHT31;67818;51.986;5.648;2023-08-24T12:51:34;27.0;60.5
78520;SHT31;67818;51.986;5.648;2023-08-24T12:54:04;27.0;61.9
78520;SHT31;67818;51.986;5.648;2023-08-24T12:56:35;27.0;60.8
78520;SHT31;67818;51.986;5.648;2023-08-24T12:59:06;27.0;63.1
78520;SHT31;67818;51.986;5.648;2023-08-24T13:01:35;27.0;63.1
78520;SHT31;67818;51.986;5.648;2023-08-24T13:04:04;27.0;63.7
78520;SHT31;67818;51.986;5.648;2023-08-24T13:06:33;27.0;65.7
78520;SHT31;67818;51.986;5.648;2023-08-24T13:09:03;27.1;62.0
78520;SHT31;67818;51.986;5.648;2023-08-24T13:11:32;27.1;61.3
78520;SHT31;67818;51.986;5.648;2023-08-24T13:14:01;27.2;61.0
78520;SHT31;67818;51.986;5.648;2023-08-24T13:16:29;27.2;60.5
78520;SHT31;67818;51.986;5.648;2023-08-24T13:19:00;27.3;60.6
78520;SHT31;67818;51.986;5.648;2023-08-24T13:21:28;27.3;61.2
78520;SHT31;67818;51.986;5.648;2023-08-24T13:23:57;27.3;60.5
78520;SHT31;67818;51.986;5.648;2023-08-24T13:26:26;27.4;61.1
78520;SHT31;67818;51.986;5.648;2023-08-24T13:28:54;27.4;60.5
78520;SHT31;67818;51.986;5.648;2023-08-24T13:31:23;27.5;60.8
78520;SHT31;67818;51.986;5.648;2023-08-24T13:33:52;27.5;59.5
78520;SHT31;67818;51.986;5.648;2023-08-24T13:36:20;27.6;60.0
78520;SHT31;67818;51.986;5.648;2023-08-24T13:38:49;27.6;59.5
78520;SHT31;67818;51.986;5.648;2023-08-24T13:41:19;27.7;61.2
78520;SHT31;67818;51.986;5.648;2023-08-24T13:43:48;27.7;60.0
78520;SHT31;67818;51.986;5.648;2023-08-24T13:46:16;27.8;59.3
78520;SHT31;67818;51.986;5.648;2023-08-24T13:48:45;27.8;60.6
78520;SHT31;67818;51.986;5.648;2023-08-24T13:51:13;27.8;58.5
78520;SHT31;67818;51.986;5.648;2023-08-24T13:53:42;27.8;59.0
78520;SHT31;67818;51.986;5.648;2023-08-24T13:56:13;27.8;58.0
78520;SHT31;67818;51.986;5.648;2023-08-24T13:58:42;27.8;58.1
78520;SHT31;67818;51.986;5.648;2023-08-24T14:01:11;27.8;58.8
78520;SHT31;67818;51.986;5.648;2023-08-24T14:03:40;27.7;58.6
78520;SHT31;67818;51.986;5.648;2023-08-24T14:06:09;27.7;59.0
78520;SHT31;67818;51.986;5.648;2023-08-24T14:08:38;27.7;58.3
78520;SHT31;67818;51.986;5.648;2023-08-24T14:11:07;27.6;59.0
78520;SHT31;67818;51.986;5.648;2023-08-24T14:13:37;27.6;58.8
78520;SHT31;67818;51.986;5.648;2023-08-24T14:16:06;27.6;58.8
78520;SHT31;67818;51.986;5.648;2023-08-24T14:18:36;27.5;59.2
78520;SHT31;67818;51.986;5.648;2023-08-24T14:21:06;27.5;59.3
78520;SHT31;67818;51.986;5.648;2023-08-24T14:23:34;27.4;59.2
78520;SHT31;67818;51.986;5.648;2023-08-24T14:26:03;27.3;59.3
78520;SHT31;67818;51.986;5.648;2023-08-24T14:28:50;27.3;59.5
78520;SHT31;67818;51.986;5.648;2023-08-24T14:31:20;27.2;60.0
78520;SHT31;67818;51.986;5.648;2023-08-24T14:33:49;27.1;60.4
78520;SHT31;67818;51.986;5.648;2023-08-24T14:36:19;27.1;60.9
78520;SHT31;67818;51.986;5.648;2023-08-24T14:38:49;27.0;61.3
78520;SHT31;67818;51.986;5.648;2023-08-24T14:41:18;27.0;61.6
78520;SHT31;67818;51.986;5.648;2023-08-24T14:43:47;27.0;61.0
78520;SHT31;67818;51.986;5.648;2023-08-24T14:46:16;26.9;61.0
78520;SHT31;67818;51.986;5.648;2023-08-24T14:48:44;26.9;61.7
78520;SHT31;67818;51.986;5.648;2023-08-24T14:51:13;26.8;61.8
78520;SHT31;67818;51.986;5.648;2023-08-24T14:53:42;26.8;61.9
78520;SHT31;67818;51.986;5.648;2023-08-24T14:56:10;26.8;62.0
78520;SHT31;67818;51.986;5.648;2023-08-24T14:58:39;26.7;62.8
78520;SHT31;67818;51.986;5.648;2023-08-24T15:01:07;26.7;62.3
78520;SHT31;67818;51.986;5.648;2023-08-24T15:03:36;26.6;62.6
78520;SHT31;67818;51.986;5.648;2023-08-24T15:06:06;26.6;62.1
78520;SHT31;67818;51.986;5.648;2023-08-24T15:08:35;26.5;62.3
78520;SHT31;67818;51.986;5.648;2023-08-24T15:11:06;26.5;62.4
78520;SHT31;67818;51.986;5.648;2023-08-24T15:13:38;26.5;63.2
78520;SHT31;67818;51.986;5.648;2023-08-24T15:16:07;26.4;62.3
78520;SHT31;67818;51.986;5.648;2023-08-24T15:18:36;26.4;62.3
78520;SHT31;67818;51.986;5.648;2023-08-24T15:21:05;26.4;62.8
78520;SHT31;67818;51.986;5.648;2023-08-24T15:23:34;26.4;63.6
78520;SHT31;67818;51.986;5.648;2023-08-24T15:26:03;26.3;62.6
78520;SHT31;67818;51.986;5.648;2023-08-24T15:31:11;26.3;62.3
78520;SHT31;67818;51.986;5.648;2023-08-24T15:33:39;26.3;62.8
78520;SHT31;67818;51.986;5.648;2023-08-24T15:36:08;26.2;63.2
78520;SHT31;67818;51.986;5.648;2023-08-24T15:38:36;26.2;62.7
78520;SHT31;67818;51.986;5.648;2023-08-24T15:41:05;26.2;62.5
78520;SHT31;67818;51.986;5.648;2023-08-24T15:43:34;26.2;63.5
78520;SHT31;67818;51.986;5.648;2023-08-24T15:46:02;26.2;62.4
78520;SHT31;67818;51.986;5.648;2023-08-24T15:48:31;26.2;62.2
78520;SHT31;67818;51.986;5.648;2023-08-24T15:51:00;26.2;61.8
78520;SHT31;67818;51.986;5.648;2023-08-24T15:53:29;26.2;61.5
78520;SHT31;67818;51.986;5.648;2023-08-24T15:55:58;26.2;62.6
78520;SHT31;67818;51.986;5.648;2023-08-24T15:58:27;26.2;63.0
78520;SHT31;67818;51.986;5.648;2023-08-24T16:00:55;26.3;63.3
78520;SHT31;67818;51.986;5.648;2023-08-24T16:03:24;26.4;62.3
78520;SHT31;67818;51.986;5.648;2023-08-24T16:05:55;26.4;62.6
78520;SHT31;67818;51.986;5.648;2023-08-24T16:08:24;26.5;61.5
78520;SHT31;67818;51.986;5.648;2023-08-24T16:10:57;26.5;61.8
78520;SHT31;67818;51.986;5.648;2023-08-24T16:13:25;26.5;61.4
78520;SHT31;67818;51.986;5.648;2023-08-24T16:15:54;26.6;60.7
78520;SHT31;67818;51.986;5.648;2023-08-24T16:18:25;26.6;60.3
78520;SHT31;67818;51.986;5.648;2023-08-24T16:20:54;26.5;60.9
78520;SHT31;67818;51.986;5.648;2023-08-24T16:23:24;26.5;60.2